MSC Armonia — H8EW — position and weather

sailwx.info

Track history (hours):
 
Tides and Currents Weather Stations Pressure Air Temp Water Temp Dewpoint Dewpoint Depression Visibility Wind Speed Wind Dir Waves Ship Positions

MSC Armonia

Operator: Mediterranean Shipping Company

Last reported at 2017-Apr-29 03:31 UTC. Time now 2017-Apr-29 03:32 UTC.
Position N 43°31' E 009°24'.

Length 275 m; draft 6.8 m.

Type: Ship. MMSI: 357281000.

Date/timePositionNaut miles runAvg speedWind from/ knotsBaromVisibWave heightAir tempDewpointWater temp
2017-Apr-29 03:31N 43°31' E 009°24'918.6
2017-Apr-29 03:00N 43°23' E 009°29'39411.9
2017-Apr-27 17:50N 38°33' E 015°23'516.4
2017-Apr-27 17:30N 38°30' E 015°28'816.6
2017-Apr-27 17:00N 38°24' E 015°36'815.6
2017-Apr-27 16:30N 38°18' E 015°41'815.2
2017-Apr-27 16:00N 38°12' E 015°34'1 1.8
2017-Apr-27 15:28N 38°12' E 015°33'0 0.0
2017-Apr-27 14:58N 38°12' E 015°33'0 0.0
2017-Apr-27 13:58N 38°12' E 015°33'0 0.0
2017-Apr-27 13:28N 38°12' E 015°33'0 0.0
2017-Apr-27 12:58N 38°12' E 015°33'0 0.0
2017-Apr-27 12:28N 38°12' E 015°33'0 0.0
2017-Apr-27 11:58N 38°12' E 015°33'0 0.0
2017-Apr-27 11:28N 38°12' E 015°33'0 0.0
2017-Apr-27 10:58N 38°12' E 015°33'0 0.0
2017-Apr-27 10:28N 38°12' E 015°33'0 0.0
2017-Apr-27 09:58N 38°12' E 015°33'0 0.0
2017-Apr-27 09:28N 38°12' E 015°33'0 0.0
2017-Apr-27 08:58N 38°12' E 015°33'0 0.0
2017-Apr-27 08:28N 38°12' E 015°33'0 0.0
2017-Apr-27 07:58N 38°12' E 015°33'0 0.0
2017-Apr-27 07:28N 38°12' E 015°33'0 0.0
2017-Apr-27 06:55N 38°12' E 015°33'0 0.0
2017-Apr-27 06:29N 38°12' E 015°33'1 1.3
2017-Apr-27 06:01N 38°12' E 015°34'4 7.5
2017-Apr-27 05:30N 38°09' E 015°37'612.8
2017-Apr-27 05:00N 38°03' E 015°35'712.5
2017-Apr-27 04:29N 37°56' E 015°35'612.3
2017-Apr-27 04:00N 37°50' E 015°34'1212.4
2017-Apr-27 03:02N 37°38' E 015°33'1312.8
2017-Apr-27 02:00N 37°25' E 015°31'713.1
2017-Apr-27 01:30N 37°19' E 015°30'5813.2
2017-Apr-26 21:07N 36°25' E 015°05'213.8
2017-Apr-26 21:00N 36°23' E 015°03'816.2
2017-Apr-26 20:30N 36°18' E 014°56'816.4
2017-Apr-26 20:00N 36°12' E 014°50'816.1
2017-Apr-26 19:30N 36°06' E 014°43'815.8
2017-Apr-26 19:00N 35°59' E 014°37'7 0.9
2017-Apr-26 11:59N 35°54' E 014°32'612.3
2017-Apr-26 11:30N 36°00' E 014°30'815.5
2017-Apr-26 11:00N 36°06' E 014°24'715.2
2017-Apr-26 10:30N 36°11' E 014°17'815.2
2017-Apr-26 10:00N 36°16' E 014°10'815.4
2017-Apr-26 09:30N 36°22' E 014°03'3216.8
2017-Apr-26 07:35N 36°46' E 013°37'217.7
2017-Apr-26 07:30N 36°47' E 013°35'24315.8
2017-Apr-25 16:07N 39°03' E 009°20'216.0
2017-Apr-25 16:00N 39°04' E 009°18'815.6
2017-Apr-25 15:30N 39°09' E 009°10'5 9.3
2017-Apr-25 15:00N 39°12' E 009°07'0 0.2
2017-Apr-25 14:00N 39°12' E 009°06'0 0.0
2017-Apr-25 13:30N 39°12' E 009°06'0 0.0
2017-Apr-25 13:00N 39°12' E 009°06'0 0.0
2017-Apr-25 12:30N 39°12' E 009°06'0 0.0
2017-Apr-25 12:00N 39°12' E 009°06'0 0.0
2017-Apr-25 11:30N 39°12' E 009°06'0 0.0
2017-Apr-25 11:00N 39°12' E 009°06'0 0.0
2017-Apr-25 10:30N 39°12' E 009°06'0 0.0
2017-Apr-25 10:00N 39°12' E 009°06'0 0.0
2017-Apr-25 09:30N 39°12' E 009°06'0 0.0
2017-Apr-25 09:00N 39°12' E 009°06'0 0.0
2017-Apr-25 08:30N 39°12' E 009°06'0 0.0
2017-Apr-25 08:00N 39°12' E 009°06'0 0.0
2017-Apr-25 07:30N 39°12' E 009°06'0 1.0
2017-Apr-25 07:00N 39°12' E 009°07'612.2
2017-Apr-25 06:30N 39°06' E 009°08'815.5
2017-Apr-25 06:00N 38°59' E 009°04'915.8
2017-Apr-25 05:26N 38°53' E 008°56'13313.4
2017-Apr-24 19:33N 39°23' E 006°09'116.9
2017-Apr-24 19:30N 39°23' E 006°08'6616.6
2017-Apr-24 15:32N 39°44' E 004°47'171 8.0
2017-Apr-23 18:03N 42°35' E 005°01'116.7
2017-Apr-23 18:00N 42°36' E 005°01'3216.7
2017-Apr-23 16:03N 43°08' E 005°11'117.0
2017-Apr-23 16:00N 43°09' E 005°11'816.3
2017-Apr-23 15:30N 43°16' E 005°15'6 0.6
2017-Apr-23 05:26N 43°21' E 005°19'3 6.5
2017-Apr-23 05:00N 43°19' E 005°17'611.3
2017-Apr-23 04:30N 43°13' E 005°17'7714.3
2017-Apr-22 23:07N 43°13' E 007°03'215.9
2017-Apr-22 23:00N 43°13' E 007°05'815.8
2017-Apr-22 22:30N 43°17' E 007°15'815.7
2017-Apr-22 22:00N 43°21' E 007°24'815.3
2017-Apr-22 21:30N 43°25' E 007°33'815.1
2017-Apr-22 21:00N 43°29' E 007°42'715.2
2017-Apr-22 20:31N 43°32' E 007°51'815.2
2017-Apr-22 20:01N 43°37' E 008°00'3315.8
2017-Apr-22 17:56N 44°01' E 008°31'716.2
2017-Apr-22 17:30N 44°06' E 008°37'816.3
2017-Apr-22 17:00N 44°12' E 008°44'816.6
2017-Apr-22 16:30N 44°18' E 008°52'612.1
2017-Apr-22 16:00N 44°24' E 008°55'1 1.5
2017-Apr-22 15:30N 44°25' E 008°55'0 0.0
2017-Apr-22 15:00N 44°25' E 008°55'0 0.0
2017-Apr-22 14:30N 44°25' E 008°55'0 0.0
2017-Apr-22 13:30N 44°25' E 008°55'0 0.0
2017-Apr-22 13:00N 44°25' E 008°55'0 0.0
2017-Apr-22 12:30N 44°25' E 008°55'0 0.0
2017-Apr-22 12:00N 44°25' E 008°55'0 0.0
2017-Apr-22 11:30N 44°25' E 008°55'0 0.0
2017-Apr-22 11:00N 44°25' E 008°55'0 0.0
2017-Apr-22 10:30N 44°25' E 008°55'0 0.0
2017-Apr-22 10:00N 44°25' E 008°55'0 0.0
2017-Apr-22 09:30N 44°25' E 008°55'0 0.0
2017-Apr-22 09:00N 44°25' E 008°55'0 0.0
2017-Apr-22 08:30N 44°25' E 008°55'0 0.0
2017-Apr-22 08:00N 44°25' E 008°55'0 0.0
2017-Apr-22 07:30N 44°25' E 008°55'0 0.0
2017-Apr-22 07:00N 44°25' E 008°55'0 0.6
2017-Apr-22 06:31N 44°24' E 008°55'3 6.5
2017-Apr-22 06:00N 44°22' E 008°58'918.8
2017-Apr-22 05:30N 44°13' E 009°02'1019.3
2017-Apr-22 05:00N 44°04' E 009°07'1019.3
2017-Apr-22 04:30N 43°55' E 009°12'1019.4
2017-Apr-22 04:00N 43°46' E 009°17'1019.3
2017-Apr-22 03:30N 43°37' E 009°21'919.0
2017-Apr-22 03:01N 43°28' E 009°26'1019.0
2017-Apr-22 02:30N 43°19' E 009°30'38312.1
2017-Apr-20 18:45N 38°39' E 015°16'415.7
2017-Apr-20 18:30N 38°36' E 015°20'816.1
2017-Apr-20 17:59N 38°30' E 015°27'816.3
2017-Apr-20 17:30N 38°24' E 015°34'816.3
2017-Apr-20 17:01N 38°19' E 015°41'612.5
2017-Apr-20 16:31N 38°13' E 015°37'3 6.0
2017-Apr-20 15:58N 38°12' E 015°33'0 0.0
2017-Apr-20 15:28N 38°12' E 015°33'0 0.0
2017-Apr-20 14:58N 38°12' E 015°33'0 0.0
2017-Apr-20 14:28N 38°12' E 015°33'0 0.0
2017-Apr-20 13:28N 38°12' E 015°33'0 0.0
2017-Apr-20 12:58N 38°12' E 015°33'0 0.0
2017-Apr-20 12:28N 38°12' E 015°33'0 0.0
2017-Apr-20 11:58N 38°12' E 015°33'0 0.0
2017-Apr-20 11:28N 38°12' E 015°33'0 0.0
2017-Apr-20 10:58N 38°12' E 015°33'0 0.0
2017-Apr-20 10:28N 38°12' E 015°33'0 0.0
2017-Apr-20 09:58N 38°12' E 015°33'0 0.0
2017-Apr-20 09:28N 38°12' E 015°33'0 0.0
2017-Apr-20 08:58N 38°12' E 015°33'0 0.0
2017-Apr-20 08:28N 38°12' E 015°33'0 0.0
2017-Apr-20 07:55N 38°12' E 015°33'0 0.0
2017-Apr-20 07:28N 38°12' E 015°33'0 0.0
2017-Apr-20 06:58N 38°12' E 015°33'0 0.0
2017-Apr-20 06:28N 38°12' E 015°33'0 0.1
2017-Apr-20 05:58N 38°12' E 015°34'3 6.2
2017-Apr-20 05:31N 38°10' E 015°37'612.8
2017-Apr-20 05:00N 38°04' E 015°36'714.6
2017-Apr-20 04:30N 37°57' E 015°35'612.0
2017-Apr-20 04:01N 37°51' E 015°34'11713.0
2017-Apr-19 19:02N 36°02' E 014°40'116.2
2017-Apr-19 19:00N 36°02' E 014°40'816.2
2017-Apr-19 18:30N 35°56' E 014°33'2 0.2
2017-Apr-19 10:36N 35°54' E 014°32'1 9.0
2017-Apr-19 10:30N 35°55' E 014°33'611.0
2017-Apr-19 10:00N 35°60' E 014°30'815.2
2017-Apr-19 09:30N 36°06' E 014°23'817.2
2017-Apr-19 09:01N 36°12' E 014°17'917.3
2017-Apr-19 08:30N 36°19' E 014°09'  
Track history (hours):
 
Tides and Currents Weather Stations Pressure Air Temp Water Temp Dewpoint Dewpoint Depression Visibility Wind Speed Wind Dir Waves Ship Positions

MSC Armonia

Operator: Mediterranean Shipping Company

Last reported at 2017-Apr-29 03:31 UTC. Time now 2017-Apr-29 03:32 UTC.
Position N 43°31' E 009°24'.

Length 275 m; draft 6.8 m.

Type: Ship. MMSI: 357281000.

Date/timePositionNaut miles runAvg speedWind from/ knotsBaromVisibWave heightAir tempDewpointWater temp
2017-Apr-29 03:31N 43°31' E 009°24'918.6
2017-Apr-29 03:00N 43°23' E 009°29'39411.9
2017-Apr-27 17:50N 38°33' E 015°23'516.4
2017-Apr-27 17:30N 38°30' E 015°28'816.6
2017-Apr-27 17:00N 38°24' E 015°36'815.6
2017-Apr-27 16:30N 38°18' E 015°41'815.2
2017-Apr-27 16:00N 38°12' E 015°34'1 1.8
2017-Apr-27 15:28N 38°12' E 015°33'0 0.0
2017-Apr-27 14:58N 38°12' E 015°33'0 0.0
2017-Apr-27 13:58N 38°12' E 015°33'0 0.0
2017-Apr-27 13:28N 38°12' E 015°33'0 0.0
2017-Apr-27 12:58N 38°12' E 015°33'0 0.0
2017-Apr-27 12:28N 38°12' E 015°33'0 0.0
2017-Apr-27 11:58N 38°12' E 015°33'0 0.0
2017-Apr-27 11:28N 38°12' E 015°33'0 0.0
2017-Apr-27 10:58N 38°12' E 015°33'0 0.0
2017-Apr-27 10:28N 38°12' E 015°33'0 0.0
2017-Apr-27 09:58N 38°12' E 015°33'0 0.0
2017-Apr-27 09:28N 38°12' E 015°33'0 0.0
2017-Apr-27 08:58N 38°12' E 015°33'0 0.0
2017-Apr-27 08:28N 38°12' E 015°33'0 0.0
2017-Apr-27 07:58N 38°12' E 015°33'0 0.0
2017-Apr-27 07:28N 38°12' E 015°33'0 0.0
2017-Apr-27 06:55N 38°12' E 015°33'0 0.0
2017-Apr-27 06:29N 38°12' E 015°33'1 1.3
2017-Apr-27 06:01N 38°12' E 015°34'4 7.5
2017-Apr-27 05:30N 38°09' E 015°37'612.8
2017-Apr-27 05:00N 38°03' E 015°35'712.5
2017-Apr-27 04:29N 37°56' E 015°35'612.3
2017-Apr-27 04:00N 37°50' E 015°34'1212.4
2017-Apr-27 03:02N 37°38' E 015°33'1312.8
2017-Apr-27 02:00N 37°25' E 015°31'713.1
2017-Apr-27 01:30N 37°19' E 015°30'5813.2
2017-Apr-26 21:07N 36°25' E 015°05'213.8
2017-Apr-26 21:00N 36°23' E 015°03'816.2
2017-Apr-26 20:30N 36°18' E 014°56'816.4
2017-Apr-26 20:00N 36°12' E 014°50'816.1
2017-Apr-26 19:30N 36°06' E 014°43'815.8
2017-Apr-26 19:00N 35°59' E 014°37'7 0.9
2017-Apr-26 11:59N 35°54' E 014°32'612.3
2017-Apr-26 11:30N 36°00' E 014°30'815.5
2017-Apr-26 11:00N 36°06' E 014°24'715.2
2017-Apr-26 10:30N 36°11' E 014°17'815.2
2017-Apr-26 10:00N 36°16' E 014°10'815.4
2017-Apr-26 09:30N 36°22' E 014°03'3216.8
2017-Apr-26 07:35N 36°46' E 013°37'217.7
2017-Apr-26 07:30N 36°47' E 013°35'24315.8
2017-Apr-25 16:07N 39°03' E 009°20'216.0
2017-Apr-25 16:00N 39°04' E 009°18'815.6
2017-Apr-25 15:30N 39°09' E 009°10'5 9.3
2017-Apr-25 15:00N 39°12' E 009°07'0 0.2
2017-Apr-25 14:00N 39°12' E 009°06'0 0.0
2017-Apr-25 13:30N 39°12' E 009°06'0 0.0
2017-Apr-25 13:00N 39°12' E 009°06'0 0.0
2017-Apr-25 12:30N 39°12' E 009°06'0 0.0
2017-Apr-25 12:00N 39°12' E 009°06'0 0.0
2017-Apr-25 11:30N 39°12' E 009°06'0 0.0
2017-Apr-25 11:00N 39°12' E 009°06'0 0.0
2017-Apr-25 10:30N 39°12' E 009°06'0 0.0
2017-Apr-25 10:00N 39°12' E 009°06'0 0.0
2017-Apr-25 09:30N 39°12' E 009°06'0 0.0
2017-Apr-25 09:00N 39°12' E 009°06'0 0.0
2017-Apr-25 08:30N 39°12' E 009°06'0 0.0
2017-Apr-25 08:00N 39°12' E 009°06'0 0.0
2017-Apr-25 07:30N 39°12' E 009°06'0 1.0
2017-Apr-25 07:00N 39°12' E 009°07'612.2
2017-Apr-25 06:30N 39°06' E 009°08'815.5
2017-Apr-25 06:00N 38°59' E 009°04'915.8
2017-Apr-25 05:26N 38°53' E 008°56'13313.4
2017-Apr-24 19:33N 39°23' E 006°09'116.9
2017-Apr-24 19:30N 39°23' E 006°08'6616.6
2017-Apr-24 15:32N 39°44' E 004°47'171 8.0
2017-Apr-23 18:03N 42°35' E 005°01'116.7
2017-Apr-23 18:00N 42°36' E 005°01'3216.7
2017-Apr-23 16:03N 43°08' E 005°11'117.0
2017-Apr-23 16:00N 43°09' E 005°11'816.3
2017-Apr-23 15:30N 43°16' E 005°15'6 0.6
2017-Apr-23 05:26N 43°21' E 005°19'3 6.5
2017-Apr-23 05:00N 43°19' E 005°17'611.3
2017-Apr-23 04:30N 43°13' E 005°17'7714.3
2017-Apr-22 23:07N 43°13' E 007°03'215.9
2017-Apr-22 23:00N 43°13' E 007°05'815.8
2017-Apr-22 22:30N 43°17' E 007°15'815.7
2017-Apr-22 22:00N 43°21' E 007°24'815.3
2017-Apr-22 21:30N 43°25' E 007°33'815.1
2017-Apr-22 21:00N 43°29' E 007°42'715.2
2017-Apr-22 20:31N 43°32' E 007°51'815.2
2017-Apr-22 20:01N 43°37' E 008°00'3315.8
2017-Apr-22 17:56N 44°01' E 008°31'716.2
2017-Apr-22 17:30N 44°06' E 008°37'816.3
2017-Apr-22 17:00N 44°12' E 008°44'816.6
2017-Apr-22 16:30N 44°18' E 008°52'612.1
2017-Apr-22 16:00N 44°24' E 008°55'1 1.5
2017-Apr-22 15:30N 44°25' E 008°55'0 0.0
2017-Apr-22 15:00N 44°25' E 008°55'0 0.0
2017-Apr-22 14:30N 44°25' E 008°55'0 0.0
2017-Apr-22 13:30N 44°25' E 008°55'0 0.0
2017-Apr-22 13:00N 44°25' E 008°55'0 0.0
2017-Apr-22 12:30N 44°25' E 008°55'0 0.0
2017-Apr-22 12:00N 44°25' E 008°55'0 0.0
2017-Apr-22 11:30N 44°25' E 008°55'0 0.0
2017-Apr-22 11:00N 44°25' E 008°55'0 0.0
2017-Apr-22 10:30N 44°25' E 008°55'0 0.0
2017-Apr-22 10:00N 44°25' E 008°55'0 0.0
2017-Apr-22 09:30N 44°25' E 008°55'0 0.0
2017-Apr-22 09:00N 44°25' E 008°55'0 0.0
2017-Apr-22 08:30N 44°25' E 008°55'0 0.0
2017-Apr-22 08:00N 44°25' E 008°55'0 0.0
2017-Apr-22 07:30N 44°25' E 008°55'0 0.0
2017-Apr-22 07:00N 44°25' E 008°55'0 0.6
2017-Apr-22 06:31N 44°24' E 008°55'3 6.5
2017-Apr-22 06:00N 44°22' E 008°58'918.8
2017-Apr-22 05:30N 44°13' E 009°02'1019.3
2017-Apr-22 05:00N 44°04' E 009°07'1019.3
2017-Apr-22 04:30N 43°55' E 009°12'1019.4
2017-Apr-22 04:00N 43°46' E 009°17'1019.3
2017-Apr-22 03:30N 43°37' E 009°21'919.0
2017-Apr-22 03:01N 43°28' E 009°26'1019.0
2017-Apr-22 02:30N 43°19' E 009°30'38312.1
2017-Apr-20 18:45N 38°39' E 015°16'415.7
2017-Apr-20 18:30N 38°36' E 015°20'816.1
2017-Apr-20 17:59N 38°30' E 015°27'816.3
2017-Apr-20 17:30N 38°24' E 015°34'816.3
2017-Apr-20 17:01N 38°19' E 015°41'612.5
2017-Apr-20 16:31N 38°13' E 015°37'3 6.0
2017-Apr-20 15:58N 38°12' E 015°33'0 0.0
2017-Apr-20 15:28N 38°12' E 015°33'0 0.0
2017-Apr-20 14:58N 38°12' E 015°33'0 0.0
2017-Apr-20 14:28N 38°12' E 015°33'0 0.0
2017-Apr-20 13:28N 38°12' E 015°33'0 0.0
2017-Apr-20 12:58N 38°12' E 015°33'0 0.0
2017-Apr-20 12:28N 38°12' E 015°33'0 0.0
2017-Apr-20 11:58N 38°12' E 015°33'0 0.0
2017-Apr-20 11:28N 38°12' E 015°33'0 0.0
2017-Apr-20 10:58N 38°12' E 015°33'0 0.0
2017-Apr-20 10:28N 38°12' E 015°33'0 0.0
2017-Apr-20 09:58N 38°12' E 015°33'0 0.0
2017-Apr-20 09:28N 38°12' E 015°33'0 0.0
2017-Apr-20 08:58N 38°12' E 015°33'0 0.0
2017-Apr-20 08:28N 38°12' E 015°33'0 0.0
2017-Apr-20 07:55N 38°12' E 015°33'0 0.0
2017-Apr-20 07:28N 38°12' E 015°33'0 0.0
2017-Apr-20 06:58N 38°12' E 015°33'0 0.0
2017-Apr-20 06:28N 38°12' E 015°33'0 0.1
2017-Apr-20 05:58N 38°12' E 015°34'3 6.2
2017-Apr-20 05:31N 38°10' E 015°37'612.8
2017-Apr-20 05:00N 38°04' E 015°36'714.6
2017-Apr-20 04:30N 37°57' E 015°35'612.0
2017-Apr-20 04:01N 37°51' E 015°34'11713.0
2017-Apr-19 19:02N 36°02' E 014°40'116.2
2017-Apr-19 19:00N 36°02' E 014°40'816.2
2017-Apr-19 18:30N 35°56' E 014°33'2 0.2
2017-Apr-19 10:36N 35°54' E 014°32'1 9.0
2017-Apr-19 10:30N 35°55' E 014°33'611.0
2017-Apr-19 10:00N 35°60' E 014°30'815.2
2017-Apr-19 09:30N 36°06' E 014°23'817.2
2017-Apr-19 09:01N 36°12' E 014°17'917.3
2017-Apr-19 08:30N 36°19' E 014°09'  

Dump ship's entire track history